createdAt,value
2023-02-14T00:01:38.802Z,22.17
2023-02-14T00:04:06.721Z,22.10
2023-02-14T00:06:38.901Z,22.43
2023-02-14T00:09:14.381Z,26.73
2023-02-14T00:11:43.803Z,27.07
2023-02-14T00:14:34.403Z,25.83
2023-02-14T00:17:02.324Z,22.30
2023-02-14T00:19:31.733Z,29.60
2023-02-14T00:22:04.771Z,22.80
2023-02-14T00:24:33.332Z,21.77
2023-02-14T00:27:01.389Z,22.03
2023-02-14T00:29:33.236Z,22.27
2023-02-14T00:32:03.922Z,24.83
2023-02-14T00:34:33.603Z,22.60
2023-02-14T00:37:01.370Z,23.27
2023-02-14T00:39:29.242Z,21.80
2023-02-14T00:41:56.991Z,30.00
2023-02-14T00:44:25.554Z,25.63
2023-02-14T00:46:53.460Z,24.40
2023-02-14T00:49:24.177Z,22.07
2023-02-14T00:51:52.200Z,25.73
2023-02-14T00:54:25.028Z,22.33
2023-02-14T00:56:53.557Z,25.37
2023-02-14T00:59:21.697Z,27.03
2023-02-14T01:01:50.310Z,23.80
2023-02-14T01:04:18.433Z,23.77
2023-02-14T01:06:46.828Z,26.73
2023-02-14T01:09:14.666Z,22.83
2023-02-14T01:11:42.448Z,23.60
2023-02-14T01:14:10.354Z,26.87
2023-02-14T01:16:40.011Z,21.97
2023-02-14T01:19:09.434Z,20.70
2023-02-14T01:21:37.303Z,21.10
2023-02-14T01:24:09.107Z,23.47
2023-02-14T01:26:37.325Z,26.87
2023-02-14T01:29:06.931Z,24.23
2023-02-14T01:31:36.487Z,22.23
2023-02-14T01:34:04.936Z,21.73
2023-02-14T01:36:40.290Z,27.77
2023-02-14T01:39:15.487Z,21.07
2023-02-14T01:41:48.898Z,21.00
2023-02-14T01:44:17.146Z,21.30
2023-02-14T01:46:47.874Z,24.10
2023-02-14T01:49:35.127Z,23.33
2023-02-14T01:52:24.307Z,23.73
2023-02-14T01:55:19.610Z,24.70
2023-02-14T01:58:02.719Z,21.70
2023-02-14T02:00:49.453Z,23.73
2023-02-14T02:03:19.753Z,20.70
2023-02-14T02:06:11.685Z,18.90
2023-02-14T02:09:18.268Z,27.23
2023-02-14T02:11:46.391Z,21.47
2023-02-14T02:14:23.614Z,27.00
2023-02-14T02:17:41.850Z,24.30
2023-02-14T02:21:02.932Z,27.43
2023-02-14T02:24:14.264Z,20.40
2023-02-14T02:28:01.706Z,20.03
2023-02-14T02:31:56.184Z,25.67
2023-02-14T02:35:35.356Z,25.67
2023-02-14T02:39:01.833Z,20.50
2023-02-14T02:42:49.844Z,23.30
2023-02-14T02:46:28.658Z,21.67
2023-02-14T02:49:49.543Z,22.13
2023-02-14T02:53:08.370Z,24.13
2023-02-14T02:56:46.078Z,21.30
2023-02-14T02:59:33.534Z,27.83
2023-02-14T03:02:21.162Z,23.17
2023-02-14T03:04:59.580Z,23.80
2023-02-14T03:07:40.594Z,23.73
2023-02-14T03:10:30.399Z,21.63
2023-02-14T03:13:53.607Z,19.17
2023-02-14T03:16:53.826Z,17.67
2023-02-14T03:20:11.731Z,26.27
2023-02-14T03:23:04.344Z,24.13
2023-02-14T03:26:14.500Z,24.23
2023-02-14T03:28:53.302Z,23.47
2023-02-14T03:32:39.127Z,23.10
2023-02-14T03:35:54.537Z,24.03
2023-02-14T03:38:49.613Z,20.07
2023-02-14T03:41:29.758Z,19.70
2023-02-14T03:44:07.402Z,19.80
2023-02-14T03:46:50.661Z,21.20
2023-02-14T03:49:30.341Z,20.30
2023-02-14T03:52:02.828Z,20.00
2023-02-14T03:54:34.322Z,18.57
2023-02-14T03:57:47.833Z,22.07
2023-02-14T04:00:18.630Z,22.87
2023-02-14T04:03:05.037Z,18.63
2023-02-14T04:05:33.594Z,17.87
2023-02-14T04:08:01.593Z,18.73
2023-02-14T04:10:29.460Z,22.73
2023-02-14T04:12:57.141Z,20.23
2023-02-14T04:15:24.910Z,24.30
2023-02-14T04:18:11.084Z,18.77
2023-02-14T04:20:38.888Z,29.03
2023-02-14T04:23:06.659Z,24.17
2023-02-14T04:25:34.393Z,24.30
2023-02-14T04:28:02.214Z,26.10
2023-02-14T04:30:30.107Z,24.33
2023-02-14T04:32:57.795Z,30.43
2023-02-14T04:35:25.426Z,24.23
2023-02-14T04:37:53.102Z,24.70
2023-02-14T04:40:21.028Z,22.57
2023-02-14T04:42:48.783Z,25.87
2023-02-14T04:45:16.533Z,23.33
2023-02-14T04:47:44.328Z,20.47
2023-02-14T04:50:13.465Z,20.10
2023-02-14T04:52:41.629Z,21.20
2023-02-14T04:55:11.076Z,27.17
2023-02-14T04:57:38.912Z,22.10
2023-02-14T05:00:08.956Z,21.97
2023-02-14T05:02:36.836Z,20.97
2023-02-14T05:05:05.135Z,21.40
2023-02-14T05:07:32.997Z,19.70
2023-02-14T05:10:00.647Z,24.27
2023-02-14T05:12:28.254Z,25.30
2023-02-14T05:14:57.695Z,23.93
2023-02-14T05:17:25.460Z,24.53
2023-02-14T05:19:53.056Z,22.90
2023-02-14T05:22:20.735Z,29.63
2023-02-14T05:24:48.444Z,22.50
2023-02-14T05:27:16.278Z,27.03
2023-02-14T05:29:43.949Z,26.17
2023-02-14T05:32:11.891Z,24.03
2023-02-14T05:34:39.676Z,21.90
2023-02-14T05:37:07.394Z,21.97
2023-02-14T05:39:35.030Z,26.07
2023-02-14T05:42:03.336Z,30.83
2023-02-14T05:44:31.040Z,22.80
2023-02-14T05:46:58.735Z,27.60
2023-02-14T05:49:26.456Z,28.87
2023-02-14T05:51:54.141Z,26.77
2023-02-14T05:54:21.844Z,31.70
2023-02-14T05:56:49.509Z,30.93
2023-02-14T05:59:17.215Z,24.73
2023-02-14T06:01:44.916Z,27.67
2023-02-14T06:04:12.644Z,25.33
2023-02-14T06:06:40.389Z,28.40
2023-02-14T06:09:08.126Z,25.60
2023-02-14T06:11:35.758Z,27.97
2023-02-14T06:14:04.113Z,23.83
2023-02-14T06:16:31.853Z,26.70
2023-02-14T06:18:59.640Z,29.23
2023-02-14T06:21:27.530Z,32.70
2023-02-14T06:23:55.514Z,26.30
2023-02-14T06:26:23.330Z,29.67
2023-02-14T06:28:59.784Z,28.00
2023-02-14T06:31:27.663Z,30.27
2023-02-14T06:33:56.257Z,35.10
2023-02-14T06:36:24.882Z,29.80
2023-02-14T06:38:52.680Z,37.57
2023-02-14T06:41:20.641Z,34.23
2023-02-14T06:43:51.462Z,31.20
2023-02-14T06:46:21.265Z,34.43
2023-02-14T06:48:49.158Z,31.10
2023-02-14T06:51:16.914Z,31.30
2023-02-14T06:53:44.680Z,29.20
2023-02-14T06:56:12.488Z,33.17
2023-02-14T06:58:40.136Z,33.07
2023-02-14T07:01:08.049Z,28.40
2023-02-14T07:03:35.991Z,32.93
2023-02-14T07:06:03.981Z,32.43
2023-02-14T07:08:31.750Z,29.30
2023-02-14T07:11:00.085Z,30.70
2023-02-14T07:13:28.833Z,27.07
2023-02-14T07:15:57.454Z,28.60
2023-02-14T07:18:26.275Z,32.63
2023-02-14T07:20:54.206Z,34.83
2023-02-14T07:23:21.851Z,29.90
2023-02-14T07:25:49.596Z,31.33
2023-02-14T07:28:17.374Z,33.97
2023-02-14T07:30:45.183Z,28.80
2023-02-14T07:33:12.954Z,29.73
2023-02-14T07:35:40.754Z,29.70
2023-02-14T07:38:09.129Z,33.87
2023-02-14T07:40:38.329Z,30.13
2023-02-14T07:43:08.501Z,30.53
2023-02-14T07:45:36.730Z,29.07
2023-02-14T07:48:05.020Z,27.80
2023-02-14T07:50:32.773Z,34.60
2023-02-14T07:53:03.184Z,31.77
2023-02-14T07:55:31.426Z,25.50
2023-02-14T07:57:59.305Z,35.17
2023-02-14T08:00:28.479Z,33.70
2023-02-14T08:02:56.235Z,33.93
2023-02-14T08:05:24.223Z,29.83
2023-02-14T08:07:52.106Z,27.90
2023-02-14T08:10:19.976Z,33.40
2023-02-14T08:13:00.059Z,37.70
2023-02-14T08:15:54.387Z,45.67
2023-02-14T08:18:23.307Z,45.27
2023-02-14T08:20:51.501Z,31.37
2023-02-14T08:23:21.700Z,31.13
2023-02-14T08:25:52.065Z,29.40
2023-02-14T08:28:23.861Z,28.50
2023-02-14T08:30:53.623Z,29.10
2023-02-14T08:33:22.492Z,25.47
2023-02-14T08:35:54.681Z,24.23
2023-02-14T08:38:23.941Z,24.47
2023-02-14T08:40:51.875Z,24.63
2023-02-14T08:43:19.552Z,22.70
2023-02-14T08:45:48.587Z,21.13
2023-02-14T08:48:16.332Z,20.80
2023-02-14T08:50:44.103Z,25.17
2023-02-14T08:53:13.764Z,29.63
2023-02-14T08:55:41.927Z,23.17
2023-02-14T08:58:10.060Z,22.87
2023-02-14T09:00:38.127Z,23.43
2023-02-14T09:03:06.149Z,26.00
2023-02-14T09:05:35.245Z,25.37
2023-02-14T09:08:04.693Z,24.10
2023-02-14T09:10:32.478Z,21.90
2023-02-14T09:13:00.222Z,25.20
2023-02-14T09:15:28.056Z,23.37
2023-02-14T09:17:56.217Z,23.27
2023-02-14T09:20:24.082Z,27.67
2023-02-14T09:22:56.835Z,27.73
2023-02-14T09:25:25.160Z,23.13
2023-02-14T09:27:52.947Z,24.43
2023-02-14T09:30:20.696Z,23.03
2023-02-14T09:32:48.485Z,23.63
2023-02-14T09:35:17.078Z,24.93
2023-02-14T09:37:44.708Z,25.20
2023-02-14T09:40:20.404Z,24.70
2023-02-14T09:43:21.126Z,25.50
2023-02-14T09:45:59.289Z,28.50
2023-02-14T09:48:45.580Z,28.80
2023-02-14T09:51:25.843Z,26.67
2023-02-14T09:54:12.724Z,29.00
2023-02-14T09:57:03.982Z,26.87
2023-02-14T10:01:05.311Z,24.00
2023-02-14T10:04:17.379Z,24.30
2023-02-14T10:08:01.137Z,24.43
2023-02-14T10:11:02.454Z,24.27
2023-02-14T10:13:46.420Z,25.70
2023-02-14T10:16:32.767Z,29.93
2023-02-14T10:19:48.402Z,27.00
2023-02-14T10:22:41.890Z,30.90
2023-02-14T10:25:44.017Z,26.10
2023-02-14T10:28:24.332Z,32.53
2023-02-14T10:31:43.143Z,26.80
2023-02-14T10:35:11.701Z,25.00
2023-02-14T10:38:36.020Z,31.07
2023-02-14T10:41:34.441Z,32.97
2023-02-14T10:45:12.778Z,25.20
2023-02-14T10:48:13.534Z,27.13
2023-02-14T10:51:28.432Z,25.57
2023-02-14T10:54:38.254Z,27.33
2023-02-14T10:57:35.232Z,29.10
2023-02-14T11:00:28.806Z,28.90
2023-02-14T11:03:08.110Z,28.10
2023-02-14T11:05:47.614Z,25.00
2023-02-14T11:08:36.563Z,25.97
2023-02-14T11:11:37.958Z,28.50
2023-02-14T11:14:28.904Z,24.73
2023-02-14T11:17:00.885Z,30.70
2023-02-14T11:19:37.297Z,24.33
2023-02-14T11:22:06.161Z,26.67
2023-02-14T11:24:45.713Z,26.00
2023-02-14T11:27:13.513Z,24.37
2023-02-14T11:29:53.209Z,27.03
2023-02-14T11:32:31.093Z,22.03
2023-02-14T11:35:24.281Z,22.53
2023-02-14T11:37:57.428Z,21.73
2023-02-14T11:40:38.600Z,26.37
2023-02-14T11:43:14.856Z,27.57
2023-02-14T11:45:48.892Z,26.63
2023-02-14T11:48:39.455Z,25.77
2023-02-14T11:51:14.762Z,22.80
2023-02-14T11:54:00.857Z,21.53
2023-02-14T11:57:33.455Z,21.37
2023-02-14T12:00:16.965Z,25.57
2023-02-14T12:02:51.916Z,28.80
2023-02-14T12:05:34.002Z,22.97
2023-02-14T12:08:08.571Z,17.90
2023-02-14T12:10:42.130Z,17.47
2023-02-14T12:13:09.745Z,19.80
2023-02-14T12:15:52.442Z,17.00
2023-02-14T12:18:59.491Z,21.23
2023-02-14T12:22:02.966Z,17.60
2023-02-14T12:25:17.114Z,23.17
2023-02-14T12:28:16.523Z,17.77
2023-02-14T12:30:44.446Z,18.23
2023-02-14T12:33:26.099Z,18.97
2023-02-14T12:36:24.540Z,15.93
2023-02-14T12:39:27.470Z,16.90
2023-02-14T12:42:49.337Z,15.67
2023-02-14T12:46:20.604Z,17.93
2023-02-14T12:49:23.872Z,16.10
2023-02-14T12:52:44.247Z,16.27
2023-02-14T12:55:23.408Z,18.70
2023-02-14T12:58:18.538Z,16.30
2023-02-14T13:00:57.048Z,18.00
2023-02-14T13:04:03.276Z,20.83
2023-02-14T13:07:17.300Z,18.30
2023-02-14T13:10:31.703Z,18.00
2023-02-14T13:13:34.864Z,16.07
2023-02-14T13:16:51.593Z,18.13
2023-02-14T13:19:56.112Z,14.60
2023-02-14T13:22:29.773Z,26.10
2023-02-14T13:25:33.930Z,15.93
2023-02-14T13:28:13.390Z,15.43
2023-02-14T13:30:43.429Z,23.93
2023-02-14T13:33:43.716Z,15.97
2023-02-14T13:36:14.832Z,21.47
2023-02-14T13:38:56.670Z,16.20
2023-02-14T13:41:31.646Z,16.53
2023-02-14T13:44:05.543Z,16.30
2023-02-14T13:46:33.298Z,18.40
2023-02-14T13:49:30.537Z,15.30
2023-02-14T13:52:06.700Z,17.80
2023-02-14T13:54:49.281Z,15.93
2023-02-14T13:57:39.472Z,18.90
2023-02-14T14:00:25.458Z,20.67
2023-02-14T14:02:57.192Z,13.63
2023-02-14T14:06:07.363Z,19.63
2023-02-14T14:08:48.356Z,17.80
2023-02-14T14:11:22.150Z,18.67
2023-02-14T14:14:36.409Z,19.47
2023-02-14T14:17:23.345Z,15.80
2023-02-14T14:19:52.441Z,15.00
2023-02-14T14:22:22.433Z,16.80
2023-02-14T14:25:10.502Z,20.23
2023-02-14T14:27:57.092Z,24.37
2023-02-14T14:30:36.048Z,17.27
2023-02-14T14:33:28.406Z,15.17
2023-02-14T14:36:08.229Z,17.30
2023-02-14T14:38:53.526Z,16.93
2023-02-14T14:41:32.734Z,30.90
2023-02-14T14:44:01.374Z,17.47
2023-02-14T14:46:29.538Z,17.30
2023-02-14T14:48:59.167Z,19.77
2023-02-14T14:51:35.597Z,19.17
2023-02-14T14:54:15.725Z,24.53
2023-02-14T14:57:02.957Z,19.10
2023-02-14T14:59:40.980Z,18.83
2023-02-14T15:02:27.781Z,19.03
2023-02-14T15:04:55.859Z,14.07
2023-02-14T15:07:36.667Z,17.10
2023-02-14T15:10:22.086Z,17.87
2023-02-14T15:13:15.028Z,17.13
2023-02-14T15:15:51.148Z,16.77
2023-02-14T15:18:21.703Z,20.07
2023-02-14T15:20:53.028Z,18.97
2023-02-14T15:23:26.113Z,19.27
2023-02-14T15:25:54.154Z,18.00
2023-02-14T15:28:35.542Z,13.47
2023-02-14T15:31:07.951Z,14.23
2023-02-14T15:33:37.113Z,20.30
2023-02-14T15:36:24.352Z,18.73
2023-02-14T15:38:57.021Z,24.10
2023-02-14T15:41:27.088Z,17.50
2023-02-14T15:43:58.439Z,15.53
2023-02-14T15:46:39.156Z,19.00
2023-02-14T15:49:19.864Z,16.10
2023-02-14T15:51:51.063Z,20.17
2023-02-14T15:54:46.888Z,20.20
2023-02-14T15:57:29.777Z,16.93
2023-02-14T15:59:57.983Z,17.53
2023-02-14T16:02:41.312Z,17.20
2023-02-14T16:05:27.524Z,17.97
2023-02-14T16:08:24.144Z,14.50
2023-02-14T16:11:29.184Z,15.33
2023-02-14T16:13:57.642Z,17.70
2023-02-14T16:16:25.698Z,17.20
2023-02-14T16:18:56.921Z,22.60
2023-02-14T16:21:32.323Z,16.13
2023-02-14T16:24:11.770Z,18.93
2023-02-14T16:26:45.053Z,17.73
2023-02-14T16:29:25.504Z,20.80
2023-02-14T16:34:49.336Z,20.93
2023-02-14T16:37:34.914Z,20.43
2023-02-14T16:40:03.168Z,17.57
2023-02-14T16:42:32.955Z,19.90
2023-02-14T16:45:00.749Z,27.97
2023-02-14T16:47:28.619Z,25.17
2023-02-14T16:49:56.689Z,24.93
2023-02-14T16:52:29.784Z,23.97
2023-02-14T16:54:58.439Z,25.93
2023-02-14T16:57:41.460Z,25.73
2023-02-14T17:00:11.813Z,28.50
2023-02-14T17:02:44.236Z,24.60
2023-02-14T17:05:13.036Z,24.63
2023-02-14T17:07:44.559Z,26.17
2023-02-14T17:10:21.415Z,29.47
2023-02-14T17:12:52.085Z,28.13
2023-02-14T17:15:24.609Z,26.77
2023-02-14T17:18:05.355Z,24.87
2023-02-14T17:20:34.619Z,31.23
2023-02-14T17:23:02.694Z,29.80
2023-02-14T17:25:30.973Z,22.93
2023-02-14T17:28:01.066Z,27.70
2023-02-14T17:30:29.137Z,33.00
2023-02-14T17:32:56.982Z,30.33
2023-02-14T17:35:25.057Z,26.00
2023-02-14T17:37:52.862Z,32.67
2023-02-14T17:40:21.170Z,34.60
2023-02-14T17:42:49.201Z,32.73
2023-02-14T17:45:17.271Z,31.13
2023-02-14T17:47:45.777Z,29.77
2023-02-14T17:50:14.841Z,32.70
2023-02-14T17:52:43.162Z,39.53
2023-02-14T17:55:12.297Z,24.27
2023-02-14T17:57:41.217Z,29.63
2023-02-14T18:00:11.831Z,25.30
2023-02-14T18:02:42.949Z,26.30
2023-02-14T18:05:12.352Z,34.60
2023-02-14T18:07:40.100Z,31.63
2023-02-14T18:10:09.122Z,38.00
2023-02-14T18:12:38.041Z,36.37
2023-02-14T18:15:06.366Z,31.87
2023-02-14T18:17:34.200Z,34.83
2023-02-14T18:20:03.483Z,31.30
2023-02-14T18:22:32.690Z,36.60
2023-02-14T18:25:00.579Z,33.57
2023-02-14T18:27:28.344Z,47.87
2023-02-14T18:29:56.105Z,34.50
2023-02-14T18:32:23.912Z,33.67
2023-02-14T18:34:52.490Z,38.70
2023-02-14T18:37:21.166Z,33.20
2023-02-14T18:39:49.070Z,36.90
2023-02-14T18:42:16.963Z,45.43
2023-02-14T18:44:44.979Z,41.13
2023-02-14T18:47:12.902Z,38.93
2023-02-14T18:49:40.810Z,40.50
2023-02-14T18:52:08.820Z,47.53
2023-02-14T18:54:36.697Z,41.10
2023-02-14T18:57:04.703Z,52.30
2023-02-14T18:59:32.431Z,42.53
2023-02-14T19:02:00.267Z,45.57
2023-02-14T19:04:29.103Z,40.77
2023-02-14T19:06:57.029Z,48.03
2023-02-14T19:09:27.444Z,44.57
2023-02-14T19:12:00.349Z,42.13
2023-02-14T19:14:28.260Z,33.87
2023-02-14T19:16:56.177Z,37.53
2023-02-14T19:19:24.812Z,40.40
2023-02-14T19:21:53.323Z,40.80
2023-02-14T19:24:23.118Z,43.27
2023-02-14T19:26:51.127Z,44.03
2023-02-14T19:29:22.145Z,45.13
2023-02-14T19:31:56.564Z,39.50
2023-02-14T19:34:30.614Z,42.27
2023-02-14T19:37:02.870Z,45.07
2023-02-14T19:39:32.888Z,43.07
2023-02-14T19:42:01.684Z,45.60
2023-02-14T19:44:31.486Z,46.87
2023-02-14T19:47:04.102Z,41.40
2023-02-14T19:49:36.586Z,44.70
2023-02-14T19:52:09.479Z,44.33
2023-02-14T19:54:43.544Z,37.60
2023-02-14T19:57:17.759Z,44.90
2023-02-14T19:59:46.231Z,51.80
2023-02-14T20:02:20.193Z,45.70
2023-02-14T20:04:49.547Z,52.07
2023-02-14T20:07:17.546Z,47.77
2023-02-14T20:09:45.635Z,50.90
2023-02-14T20:12:14.186Z,49.97
2023-02-14T20:14:50.907Z,55.37
2023-02-14T20:17:20.451Z,48.50
2023-02-14T20:19:50.360Z,60.10
2023-02-14T20:22:21.247Z,48.00
2023-02-14T20:24:51.533Z,46.87
2023-02-14T20:27:20.929Z,44.03
2023-02-14T20:29:51.369Z,49.03
2023-02-14T20:32:24.142Z,43.43
2023-02-14T20:34:53.469Z,42.43
2023-02-14T20:37:21.879Z,43.53
2023-02-14T20:39:50.396Z,48.27
2023-02-14T20:42:18.984Z,43.70
2023-02-14T20:44:47.217Z,49.03
2023-02-14T20:47:15.479Z,43.97
2023-02-14T20:49:45.020Z,46.57
2023-02-14T20:52:13.963Z,46.70
2023-02-14T20:54:42.510Z,52.70
2023-02-14T20:57:11.000Z,48.07
2023-02-14T20:59:44.520Z,52.80
2023-02-14T21:02:13.031Z,48.43
2023-02-14T21:04:41.184Z,45.50
2023-02-14T21:07:10.453Z,47.83
2023-02-14T21:09:38.937Z,46.20
2023-02-14T21:12:08.329Z,62.87
2023-02-14T21:14:36.954Z,57.87
2023-02-14T21:17:05.389Z,56.13
2023-02-14T21:19:35.651Z,53.77
2023-02-14T21:22:04.651Z,54.23
2023-02-14T21:24:36.079Z,54.40
2023-02-14T21:27:04.524Z,54.23
2023-02-14T21:29:33.776Z,54.33
2023-02-14T21:32:03.637Z,56.63
2023-02-14T21:34:35.572Z,57.23
2023-02-14T21:37:07.094Z,52.63
2023-02-14T21:39:44.160Z,51.30
2023-02-14T21:42:12.973Z,55.17
2023-02-14T21:45:00.270Z,54.90
2023-02-14T21:47:29.387Z,54.17
2023-02-14T21:50:16.493Z,55.33
2023-02-14T21:52:44.715Z,57.90
2023-02-14T21:55:15.779Z,62.20
2023-02-14T21:57:49.064Z,61.63
2023-02-14T22:00:23.960Z,53.40
2023-02-14T22:02:52.878Z,59.10
2023-02-14T22:05:21.625Z,67.83
2023-02-14T22:07:51.144Z,62.10
2023-02-14T22:10:20.166Z,63.50
2023-02-14T22:12:48.539Z,59.13
2023-02-14T22:15:17.290Z,60.13
2023-02-14T22:17:45.725Z,60.57
2023-02-14T22:20:14.784Z,52.13
2023-02-14T22:22:44.525Z,49.93
2023-02-14T22:25:16.828Z,50.93
2023-02-14T22:27:46.862Z,55.43
2023-02-14T22:30:15.240Z,50.73
2023-02-14T22:32:55.873Z,52.03
2023-02-14T22:35:25.227Z,54.43
2023-02-14T22:37:56.026Z,54.20
2023-02-14T22:40:25.401Z,60.07
2023-02-14T22:42:54.261Z,54.50
2023-02-14T22:45:23.034Z,55.30
2023-02-14T22:47:51.809Z,60.17
2023-02-14T22:50:20.533Z,50.47
2023-02-14T22:52:50.787Z,49.17
2023-02-14T22:55:19.792Z,49.23
2023-02-14T22:57:49.571Z,48.90
2023-02-14T23:00:18.397Z,56.53
2023-02-14T23:02:47.177Z,56.40
2023-02-14T23:05:15.974Z,52.87
2023-02-14T23:07:44.937Z,64.30
2023-02-14T23:10:13.331Z,51.70
2023-02-14T23:13:00.254Z,51.00
2023-02-14T23:15:47.379Z,50.97
2023-02-14T23:18:34.292Z,49.97
2023-02-14T23:21:20.951Z,64.77
2023-02-14T23:23:49.445Z,51.93
2023-02-14T23:26:21.133Z,44.87
2023-02-14T23:28:49.023Z,52.17
2023-02-14T23:31:16.789Z,43.73
2023-02-14T23:33:44.765Z,51.33
2023-02-14T23:36:12.567Z,53.50
2023-02-14T23:38:40.295Z,47.03
2023-02-14T23:41:31.383Z,50.83
2023-02-14T23:43:59.412Z,43.80
2023-02-14T23:46:29.673Z,54.93
2023-02-14T23:48:59.459Z,50.23
2023-02-14T23:51:28.784Z,44.67
2023-02-14T23:53:56.827Z,46.67
2023-02-14T23:56:24.797Z,46.40
2023-02-14T23:58:52.798Z,47.57
